Time;durP1;ratioP1;P1;durP2;ratioP2;P2;SDS_P1;SDS_P2;PMS_P1;PMS_P2;Temp;Humidity;BMP_temperature;BMP_pressure;BME280_temperature;BME280_humidity;BME280_pressure;Samples;Min_cycle;Max_cycle;Signal;HPM_P1;HPM_P2
2023/02/26 00:02:23;;;;;;;1999.90;999.90;;;;;;;0.59;100.00;96660.97;5120660;28;20028;-81
2023/02/26 00:04:48;;;;;;;1999.90;999.90;;;;;;;0.66;100.00;96681.13;5102978;28;20020;-80
2023/02/26 00:07:14;;;;;;;1999.90;999.90;;;;;;;0.69;100.00;96704.81;5100271;28;20031;-82
2023/02/26 00:09:39;;;;;;;1999.90;999.90;;;;;;;0.59;100.00;96702.13;5110485;28;20079;-76
2023/02/26 00:12:05;;;;;;;1999.90;999.90;;;;;;;0.49;100.00;96712.81;5095533;27;20053;-83
2023/02/26 00:14:30;;;;;;;1999.90;999.90;;;;;;;0.49;100.00;96692.13;5093859;28;20031;-80
2023/02/26 00:17:05;;;;;;;1999.90;999.90;;;;;;;0.53;100.00;96703.97;5091058;28;20028;-80
2023/02/26 00:19:32;;;;;;;1999.90;999.90;;;;;;;0.51;100.00;96699.91;5090969;28;20029;-80
2023/02/26 00:21:57;;;;;;;1999.90;999.90;;;;;;;0.36;100.00;96660.34;5097051;28;20081;-81
2023/02/26 00:24:23;;;;;;;1999.90;999.90;;;;;;;0.43;100.00;96679.72;5106003;28;20067;-78
2023/02/26 00:26:48;;;;;;;1999.90;999.90;;;;;;;0.56;100.00;96683.81;5094504;28;20024;-79
2023/02/26 00:29:14;;;;;;;1999.90;999.90;;;;;;;0.50;100.00;96671.44;5101393;28;20036;-79
2023/02/26 00:31:39;;;;;;;1999.90;999.90;;;;;;;0.63;100.00;96702.41;5092569;28;20563;-77
2023/02/26 00:34:05;;;;;;;1999.90;999.90;;;;;;;0.59;100.00;96706.69;5093028;28;20020;-78
2023/02/26 00:36:58;;;;;;;1999.90;999.90;;;;;;;0.52;100.00;96698.84;5090970;28;20071;-80
2023/02/26 00:39:41;;;;;;;1999.90;999.90;;;;;;;0.43;100.00;96705.81;5089367;28;20039;-79
2023/02/26 00:42:07;;;;;;;1999.90;999.90;;;;;;;0.32;100.00;96733.69;5090417;28;20028;-77
2023/02/26 00:44:33;;;;;;;1999.90;999.90;;;;;;;0.33;100.00;96714.63;5096255;28;20020;-80
2023/02/26 00:47:29;;;;;;;1999.90;999.90;;;;;;;0.38;100.00;96670.81;5103104;28;20016;-77
2023/02/26 00:50:11;;;;;;;1999.90;999.90;;;;;;;0.40;100.00;96671.38;5101288;28;20024;-75
2023/02/26 00:53:15;;;;;;;1999.90;999.90;;;;;;;0.47;100.00;96678.13;5090718;28;20115;-79
2023/02/26 00:55:40;;;;;;;1999.90;999.90;;;;;;;0.43;100.00;96681.59;5091986;28;20028;-76
2023/02/26 00:58:06;;;;;;;1999.90;999.90;;;;;;;0.47;100.00;96688.09;5092438;28;20055;-80
2023/02/26 01:00:32;;;;;;;1999.90;999.90;;;;;;;0.49;100.00;96677.88;5102346;28;20066;-76
2023/02/26 01:02:58;;;;;;;1999.90;999.90;;;;;;;0.59;100.00;96685.97;5101119;28;20052;-77
2023/02/26 01:05:24;;;;;;;1999.90;999.90;;;;;;;0.61;100.00;96689.19;5107801;28;20069;-76
2023/02/26 01:08:11;;;;;;;1999.90;999.90;;;;;;;0.59;100.00;96688.66;5095605;28;20094;-77
2023/02/26 01:10:37;;;;;;;1999.90;999.90;;;;;;;0.53;100.00;96687.81;5110462;28;20036;-76
2023/02/26 01:13:02;;;;;;;1999.90;999.90;;;;;;;0.59;100.00;96694.06;5112689;28;20061;-78
2023/02/26 01:15:28;;;;;;;1999.90;999.90;;;;;;;0.63;100.00;96687.06;5112551;28;20023;-78
2023/02/26 01:18:12;;;;;;;1999.90;999.90;;;;;;;0.63;100.00;96675.50;5112692;28;20026;-78
2023/02/26 01:20:45;;;;;;;1999.90;999.90;;;;;;;0.70;100.00;96693.00;5112671;28;20036;-79
2023/02/26 01:23:34;;;;;;;1999.90;999.90;;;;;;;0.64;100.00;96691.38;5112658;28;20035;-80
2023/02/26 01:26:25;;;;;;;1999.90;999.90;;;;;;;0.81;100.00;96678.53;5113292;28;20032;-81
2023/02/26 01:28:52;;;;;;;1999.90;999.90;;;;;;;0.83;100.00;96683.63;5113173;28;20426;-78
2023/02/26 01:31:41;;;;;;;1999.90;999.90;;;;;;;0.82;100.00;96682.81;5115394;28;20114;-78
2023/02/26 01:34:20;;;;;;;1999.90;999.90;;;;;;;0.84;100.00;96656.47;5114533;28;20042;-80
2023/02/26 01:36:54;;;;;;;1999.90;999.90;;;;;;;0.67;100.00;96623.59;5113473;28;20621;-82
2023/02/26 01:39:42;;;;;;;1999.90;999.90;;;;;;;0.92;100.00;96676.66;5114049;28;20028;-81
2023/02/26 01:42:18;;;;;;;1999.90;999.90;;;;;;;0.88;100.00;96673.69;5114052;28;20498;-79
2023/02/26 01:45:03;;;;;;;1999.90;999.90;;;;;;;0.82;100.00;96666.66;5113894;28;20036;-80
2023/02/26 01:47:47;;;;;;;1999.90;999.90;;;;;;;0.87;100.00;96695.47;5111665;28;20424;-77
2023/02/26 01:50:19;;;;;;;1999.90;999.90;;;;;;;0.87;100.00;96693.59;5112798;28;20039;-78
2023/02/26 01:52:47;;;;;;;1999.90;999.90;;;;;;;0.91;100.00;96683.09;5114947;28;20123;-80
2023/02/26 01:55:19;;;;;;;1999.90;999.90;;;;;;;0.86;100.00;96685.78;5113634;28;20132;-79
2023/02/26 01:57:45;;;;;;;1999.90;999.90;;;;;;;0.88;100.00;96687.13;5111766;28;20073;-79
2023/02/26 02:00:11;;;;;;;1999.90;999.90;;;;;;;0.81;100.00;96678.53;5113235;28;20023;-81
2023/02/26 02:02:37;;;;;;;1999.90;999.90;;;;;;;0.70;100.00;96687.63;5113117;28;20457;-78
2023/02/26 02:05:13;;;;;;;1999.90;999.90;;;;;;;0.73;100.00;96692.47;5112467;28;20110;-77
2023/02/26 02:07:39;;;;;;;1999.90;999.90;;;;;;;0.87;100.00;96704.38;5113429;28;20044;-80
2023/02/26 02:10:05;;;;;;;1999.90;999.90;;;;;;;0.92;100.00;96682.03;5112702;28;20085;-80
2023/02/26 02:12:44;;;;;;;1999.90;999.90;;;;;;;0.99;100.00;96672.63;5115662;28;20024;-80
2023/02/26 02:15:58;;;;;;;1999.90;999.90;;;;;;;0.89;100.00;96690.63;5123269;28;20027;-78
2023/02/26 02:18:54;;;;;;;1999.90;999.90;;;;;;;0.80;100.00;96698.44;5112854;28;20395;-80
2023/02/26 02:21:37;;;;;;;1999.90;999.90;;;;;;;0.97;100.00;96707.06;5112144;28;20046;-78
2023/02/26 02:24:11;;;;;;;1999.90;999.90;;;;;;;0.98;100.00;96706.00;5112278;28;20476;-77
2023/02/26 02:26:52;;;;;;;1999.90;999.90;;;;;;;1.03;100.00;96714.09;5111024;28;20050;-78
2023/02/26 02:29:36;;;;;;;1999.90;999.90;;;;;;;0.94;100.00;96714.91;5111284;28;20484;-79
2023/02/26 02:32:08;;;;;;;1999.90;999.90;;;;;;;0.91;100.00;96697.38;5114242;28;20545;-81
2023/02/26 02:34:45;;;;;;;1999.90;999.90;;;;;;;0.85;100.00;96694.91;5115916;28;20468;-80
2023/02/26 02:37:20;;;;;;;1999.90;999.90;;;;;;;0.87;100.00;96698.19;5112976;28;20032;-79
2023/02/26 02:39:59;;;;;;;1999.90;999.90;;;;;;;0.92;100.00;96696.31;5111994;28;20096;-77
2023/02/26 02:42:30;;;;;;;1999.90;999.90;;;;;;;0.96;100.00;96704.66;5112786;28;20027;-78
2023/02/26 02:45:06;;;;;;;1999.90;999.90;;;;;;;1.01;100.00;96702.78;5112460;28;20035;-81
2023/02/26 02:47:37;;;;;;;1999.90;999.90;;;;;;;1.03;100.00;96707.91;5114065;28;20016;-83
2023/02/26 02:50:06;;;;;;;1999.90;999.90;;;;;;;1.05;100.00;96701.19;5115199;28;20028;-79
2023/02/26 02:52:51;;;;;;;1999.90;999.90;;;;;;;1.06;100.00;96707.38;5114591;28;20028;-83
2023/02/26 02:55:25;;;;;;;1999.90;999.90;;;;;;;1.10;100.00;96708.44;5112695;28;20035;-85
2023/02/26 02:58:04;;;;;;;1999.90;999.90;;;;;;;1.08;100.00;96684.50;5116067;28;20107;-82
2023/02/26 03:00:33;;;;;;;1999.90;999.90;;;;;;;0.99;100.00;96683.41;5114139;28;20464;-82
2023/02/26 03:03:25;;;;;;;1999.90;999.90;;;;;;;1.00;100.00;96703.84;5118160;28;20047;-81
2023/02/26 03:05:50;;;;;;;1999.90;999.90;;;;;;;1.04;100.00;96713.03;5117360;28;20031;-82
2023/02/26 03:08:20;;;;;;;1999.90;999.90;;;;;;;1.08;100.00;96737.53;5116580;28;20043;-83
2023/02/26 03:10:46;;;;;;;1999.90;999.90;;;;;;;1.10;100.00;96734.59;5115268;28;20023;-83
2023/02/26 03:13:20;;;;;;;1999.90;999.90;;;;;;;1.11;100.00;96752.34;5115649;28;20023;-81
2023/02/26 03:16:10;;;;;;;1999.90;999.90;;;;;;;1.18;100.00;96753.72;5115710;28;20070;-83
2023/02/26 03:18:51;;;;;;;1999.90;999.90;;;;;;;1.15;100.00;96743.47;5116534;28;20043;-82
2023/02/26 03:21:41;;;;;;;1999.90;999.90;;;;;;;1.04;100.00;96742.63;5121716;28;20045;-77
2023/02/26 03:24:20;;;;;;;1999.90;999.90;;;;;;;1.04;100.00;96731.06;5100786;28;20036;-80
2023/02/26 03:26:59;;;;;;;1999.90;999.90;;;;;;;1.01;100.00;96727.00;5090551;28;20035;-79
2023/02/26 03:29:40;;;;;;;1999.90;999.90;;;;;;;0.99;100.00;96736.44;5090909;28;20141;-77
2023/02/26 03:32:22;;;;;;;1999.90;999.90;;;;;;;1.01;100.00;96734.28;5090771;28;20052;-79
2023/02/26 03:35:15;;;;;;;1999.90;999.90;;;;;;;1.07;100.00;96736.72;5090162;28;20116;-76
2023/02/26 03:37:56;;;;;;;1999.90;999.90;;;;;;;0.94;100.00;96744.50;5090677;28;20111;-79
2023/02/26 03:40:29;;;;;;;1999.90;999.90;;;;;;;1.00;100.00;96763.06;5090589;28;20365;-78
2023/02/26 03:43:18;;;;;;;1999.90;999.90;;;;;;;1.01;100.00;96762.00;5089265;28;20036;-81
2023/02/26 03:45:48;;;;;;;1999.90;999.90;;;;;;;0.95;100.00;96749.59;5083059;28;20036;-76
2023/02/26 03:48:19;;;;;;;1999.90;999.90;;;;;;;0.94;100.00;96747.97;5091650;28;20818;-76
2023/02/26 03:50:55;;;;;;;1999.90;999.90;;;;;;;0.86;100.00;96755.75;5092425;28;20114;-77
2023/02/26 03:53:30;;;;;;;1999.90;999.90;;;;;;;0.90;100.00;96749.59;5096425;28;20032;-77
2023/02/26 03:56:10;;;;;;;1999.90;999.90;;;;;;;0.90;100.00;96752.28;5096101;28;20036;-76
2023/02/26 03:58:36;;;;;;;1999.90;999.90;;;;;;;0.82;100.00;96750.09;5093985;28;20039;-77
2023/02/26 04:01:06;;;;;;;1999.90;999.90;;;;;;;0.86;100.00;96739.59;5094076;28;20024;-80
2023/02/26 04:03:47;;;;;;;1999.90;999.90;;;;;;;0.86;100.00;96751.19;5093516;28;20036;-78
2023/02/26 04:06:13;;;;;;;1999.90;999.90;;;;;;;0.84;100.00;96737.19;5093542;28;20028;-77
2023/02/26 04:08:39;;;;;;;1999.90;999.90;;;;;;;0.85;100.00;96749.56;5093193;28;20040;-74
2023/02/26 04:11:10;;;;;;;1999.90;999.90;;;;;;;0.88;100.00;96758.97;5093111;28;20023;-75
2023/02/26 04:13:35;;;;;;;1999.90;999.90;;;;;;;0.87;100.00;96758.19;5093208;28;20039;-75
2023/02/26 04:16:01;;;;;;;1999.90;999.90;;;;;;;0.84;100.00;96772.19;5092766;28;20035;-75
2023/02/26 04:18:27;;;;;;;1999.90;999.90;;;;;;;0.74;100.00;96774.81;5093532;28;20570;-77
2023/02/26 04:20:52;;;;;;;1999.90;999.90;;;;;;;0.79;100.00;96768.63;5094282;28;20035;-79
2023/02/26 04:23:18;;;;;;;1999.90;999.90;;;;;;;0.81;100.00;96766.50;5099895;28;20024;-82
2023/02/26 04:25:44;;;;;;;1999.90;999.90;;;;;;;0.74;100.00;96763.25;5100697;28;20078;-80
2023/02/26 04:28:09;;;;;;;1999.90;999.90;;;;;;;0.82;100.00;96781.56;5094950;28;20028;-79
2023/02/26 04:30:34;;;;;;;1999.90;999.90;;;;;;;0.77;100.00;96771.59;5094294;28;20098;-81
2023/02/26 04:33:00;;;;;;;1999.90;999.90;;;;;;;0.79;100.00;96772.13;5096000;28;20074;-81
2023/02/26 04:35:25;;;;;;;1999.90;999.90;;;;;;;0.72;100.00;96782.31;5097845;28;20093;-81
2023/02/26 04:37:51;;;;;;;1999.90;999.90;;;;;;;0.59;100.00;96788.19;5101057;28;20035;-80
2023/02/26 04:40:16;;;;;;;1999.90;999.90;;;;;;;0.65;100.00;96800.59;5105150;28;20039;-84
2023/02/26 04:42:42;;;;;;;1999.90;999.90;;;;;;;0.66;100.00;96806.81;5094604;28;20086;-84
2023/02/26 04:45:09;;;;;;;1999.90;999.90;;;;;;;0.58;100.00;96797.31;5084101;28;20025;-83
2023/02/26 04:47:35;;;;;;;1999.90;999.90;;;;;;;0.63;100.00;96810.78;5080694;28;20036;-83
2023/02/26 04:50:00;;;;;;;1999.90;999.90;;;;;;;0.50;100.00;96809.38;5082640;28;20024;-81
2023/02/26 04:52:26;;;;;;;1999.90;999.90;;;;;;;0.53;100.00;96794.63;5080724;28;20441;-81
2023/02/26 04:54:51;;;;;;;1999.90;999.90;;;;;;;0.59;100.00;96801.66;5079094;28;20108;-82
2023/02/26 04:57:17;;;;;;;1999.90;999.90;;;;;;;0.56;100.00;96794.09;5078868;28;20035;-83
2023/02/26 04:59:42;;;;;;;1999.90;999.90;;;;;;;0.63;100.00;96808.09;5079705;28;20029;-79
2023/02/26 05:02:08;;;;;;;1999.90;999.90;;;;;;;0.63;100.00;96807.31;5097799;28;20353;-80
2023/02/26 05:04:33;;;;;;;1999.90;999.90;;;;;;;0.61;100.00;96791.44;5098366;28;20047;-83
2023/02/26 05:06:59;;;;;;;1999.90;999.90;;;;;;;0.63;100.00;96778.50;5104876;28;20035;-81
2023/02/26 05:09:24;;;;;;;1999.90;999.90;;;;;;;0.66;100.00;96778.00;5109179;28;20111;-84
2023/02/26 05:11:50;;;;;;;1999.90;999.90;;;;;;;0.65;100.00;96780.97;5107123;28;20016;-83
2023/02/26 05:14:16;;;;;;;1999.90;999.90;;;;;;;0.68;100.00;96800.06;5107566;28;20023;-83
2023/02/26 05:16:41;;;;;;;1999.90;999.90;;;;;;;0.61;100.00;96796.81;5099561;28;20095;-82
2023/02/26 05:19:07;;;;;;;1999.90;999.90;;;;;;;0.63;100.00;96816.16;5092517;28;20032;-82
2023/02/26 05:21:33;;;;;;;1999.90;999.90;;;;;;;0.63;100.00;96818.88;5085618;28;20045;-80
2023/02/26 05:23:59;;;;;;;1999.90;999.90;;;;;;;0.65;100.00;96821.31;5107181;28;20024;-83
2023/02/26 05:26:24;;;;;;;1999.90;999.90;;;;;;;0.64;100.00;96817.81;5107473;28;21125;-86
2023/02/26 05:28:50;;;;;;;1999.90;999.90;;;;;;;0.65;100.00;96814.06;5109983;28;20040;-86
2023/02/26 05:31:15;;;;;;;1999.90;999.90;;;;;;;0.65;100.00;96803.28;5109614;28;20031;-83
2023/02/26 05:33:41;;;;;;;1999.90;999.90;;;;;;;0.65;100.00;96799.78;5102182;28;20096;-79
2023/02/26 05:36:07;;;;;;;1999.90;999.90;;;;;;;0.67;100.00;96814.59;5100315;28;20032;-83
2023/02/26 05:38:33;;;;;;;1999.90;999.90;;;;;;;0.67;100.00;96811.91;5097315;28;20020;-83
2023/02/26 05:40:59;;;;;;;1999.90;999.90;;;;;;;0.59;100.00;96815.09;5097999;28;20024;-82
2023/02/26 05:43:25;;;;;;;1999.90;999.90;;;;;;;0.66;100.00;96820.25;5098278;28;20024;-83
2023/02/26 05:45:50;;;;;;;1999.90;999.90;;;;;;;0.63;100.00;96813.47;5100080;28;20031;-81
2023/02/26 05:48:16;;;;;;;1999.90;999.90;;;;;;;0.68;100.00;96818.91;5093585;28;20028;-78
2023/02/26 05:50:41;;;;;;;1999.90;999.90;;;;;;;0.70;100.00;96824.00;5093334;28;20473;-80
2023/02/26 05:53:07;;;;;;;1999.90;999.90;;;;;;;0.74;100.00;96823.25;5098522;28;20031;-81
2023/02/26 05:55:32;;;;;;;1999.90;999.90;;;;;;;0.76;100.00;96818.41;5102187;28;20503;-80
2023/02/26 05:57:58;;;;;;;1999.90;999.90;;;;;;;0.81;100.00;96818.44;5101822;28;20080;-82
2023/02/26 06:00:23;;;;;;;1999.90;999.90;;;;;;;0.76;100.00;96814.91;5094734;28;20032;-77
2023/02/26 06:02:49;;;;;;;1999.90;999.90;;;;;;;0.76;100.00;96831.03;5096344;28;20028;-81
2023/02/26 06:05:15;;;;;;;1999.90;999.90;;;;;;;0.73;100.00;96851.22;5093935;28;20085;-75
2023/02/26 06:07:41;;;;;;;1999.90;999.90;;;;;;;0.69;100.00;96862.78;5097390;28;20056;-77
2023/02/26 06:10:07;;;;;;;1999.90;999.90;;;;;;;0.70;100.00;96864.38;5096949;28;20040;-79
2023/02/26 06:12:33;;;;;;;1999.90;999.90;;;;;;;0.73;100.00;96864.66;5081733;28;20055;-76
2023/02/26 06:14:59;;;;;;;1999.90;999.90;;;;;;;0.82;100.00;96878.44;5069738;28;20028;-75
2023/02/26 06:17:24;;;;;;;1999.90;999.90;;;;;;;0.85;100.00;96867.97;5071160;28;20388;-76
2023/02/26 06:19:50;;;;;;;1999.90;999.90;;;;;;;0.92;100.00;96860.47;5071228;28;20381;-74
2023/02/26 06:22:16;;;;;;;1999.90;999.90;;;;;;;1.04;100.00;96861.06;5071476;28;20029;-80
2023/02/26 06:24:42;;;;;;;1999.90;999.90;;;;;;;0.86;100.00;96869.59;5071084;28;20144;-74
2023/02/26 06:27:07;;;;;;;1999.90;999.90;;;;;;;0.73;100.00;96886.19;5072374;28;20029;-78
2023/02/26 06:29:33;;;;;;;1999.90;999.90;;;;;;;0.73;100.00;96878.13;5071692;28;20040;-77
2023/02/26 06:31:58;;;;;;;1999.90;999.90;;;;;;;0.65;100.00;96869.72;5076925;28;20150;-76
2023/02/26 06:34:24;;;;;;;1999.90;999.90;;;;;;;0.72;100.00;96884.56;5078778;28;20074;-79
2023/02/26 06:36:49;;;;;;;1999.90;999.90;;;;;;;0.73;100.00;96875.44;5070905;28;20024;-81
2023/02/26 06:39:15;;;;;;;1999.90;999.90;;;;;;;0.67;100.00;96859.50;5070487;28;20044;-78
2023/02/26 06:41:40;;;;;;;1999.90;999.90;;;;;;;0.64;100.00;96838.50;5070764;28;20021;-78
2023/02/26 06:44:06;;;;;;;1999.90;999.90;;;;;;;0.68;100.00;96850.38;5070466;28;20036;-75
2023/02/26 06:46:31;;;;;;;1999.90;999.90;;;;;;;0.69;100.00;96860.88;5070766;28;20029;-79
2023/02/26 06:48:57;;;;;;;1999.90;999.90;;;;;;;0.71;100.00;96869.50;5069135;28;20028;-74
2023/02/26 06:51:22;;;;;;;1999.90;999.90;;;;;;;0.66;100.00;96856.00;5070829;28;20032;-79
2023/02/26 06:53:47;;;;;;;1999.90;999.90;;;;;;;0.63;100.00;96880.75;5070555;28;20020;-78
2023/02/26 06:56:13;;;;;;;1999.90;999.90;;;;;;;0.75;100.00;96881.34;5070143;28;20035;-79
2023/02/26 06:58:38;;;;;;;1999.90;999.90;;;;;;;0.78;100.00;96877.34;5070116;28;20052;-77
2023/02/26 07:01:04;;;;;;;1999.90;999.90;;;;;;;0.69;100.00;96860.88;5070190;28;20407;-75
2023/02/26 07:03:30;;;;;;;1999.90;999.90;;;;;;;0.72;100.00;96881.88;5071198;28;20074;-76
2023/02/26 07:05:56;;;;;;;1999.90;999.90;;;;;;;0.75;100.00;96881.34;5070933;28;20111;-75
2023/02/26 07:08:22;;;;;;;1999.90;999.90;;;;;;;0.81;100.00;96888.41;5069839;28;20045;-76
2023/02/26 07:10:48;;;;;;;1999.90;999.90;;;;;;;0.84;100.00;96895.97;5070835;28;20021;-76
2023/02/26 07:13:15;;;;;;;1999.90;999.90;;;;;;;0.83;100.00;96921.25;5070190;28;20027;-75
2023/02/26 07:15:40;;;;;;;1999.90;999.90;;;;;;;0.95;100.00;96915.66;5070052;28;20392;-76
2023/02/26 07:18:05;;;;;;;1999.90;999.90;;;;;;;0.98;100.00;96915.13;5068597;28;20039;-75
2023/02/26 07:20:31;;;;;;;1999.90;999.90;;;;;;;0.87;100.00;96897.31;5070038;28;20028;-77
2023/02/26 07:22:56;;;;;;;1999.90;999.90;;;;;;;0.90;100.00;96894.94;5069853;28;20031;-76
2023/02/26 07:25:23;;;;;;;1999.90;999.90;;;;;;;0.92;100.00;96922.38;5069637;28;20056;-76
2023/02/26 07:27:49;;;;;;;1999.90;999.90;;;;;;;1.00;100.00;96938.03;5072565;28;20020;-75
2023/02/26 07:30:15;;;;;;;1999.90;999.90;;;;;;;0.94;100.00;96933.69;5073722;28;20495;-77
2023/02/26 07:32:40;;;;;;;1999.90;999.90;;;;;;;1.06;100.00;96931.63;5073288;28;20032;-76
2023/02/26 07:35:06;;;;;;;1999.90;999.90;;;;;;;0.99;100.00;96900.63;5072045;28;20067;-79
2023/02/26 07:37:31;;;;;;;1999.90;999.90;;;;;;;1.07;100.00;96917.09;5073604;28;20032;-78
2023/02/26 07:39:57;;;;;;;1999.90;999.90;;;;;;;0.96;100.00;96925.38;5073396;28;20073;-80
2023/02/26 07:42:22;;;;;;;1999.90;999.90;;;;;;;1.01;100.00;96938.84;5073535;28;20392;-80
2023/02/26 07:44:48;;;;;;;1999.90;999.90;;;;;;;1.03;100.00;96953.66;5073345;28;20021;-78
2023/02/26 07:47:13;;;;;;;1999.90;999.90;;;;;;;1.00;100.00;96935.34;5073457;28;20077;-78
2023/02/26 07:49:38;;;;;;;1999.90;999.90;;;;;;;1.03;100.00;96952.88;5073469;28;20066;-76
2023/02/26 07:52:06;;;;;;;1999.90;999.90;;;;;;;1.05;100.00;96940.78;5088856;28;20384;-76
2023/02/26 07:54:33;;;;;;;1999.90;999.90;;;;;;;1.05;100.00;96932.69;5085884;28;20553;-74
2023/02/26 07:56:58;;;;;;;1999.90;999.90;;;;;;;1.12;100.00;96937.03;5091921;28;20040;-75
2023/02/26 07:59:23;;;;;;;1999.90;999.90;;;;;;;1.21;100.00;96951.63;5092111;28;20492;-76
2023/02/26 08:01:49;;;;;;;1999.90;999.90;;;;;;;1.13;100.00;96954.81;5093797;28;20055;-74
2023/02/26 08:04:14;;;;;;;1999.90;999.90;;;;;;;1.23;100.00;96953.00;5092466;28;20020;-75
2023/02/26 08:06:39;;;;;;;1999.90;999.90;;;;;;;1.26;100.00;96952.47;5088105;28;20497;-76
2023/02/26 08:09:05;;;;;;;1999.90;999.90;;;;;;;1.29;100.00;96964.59;5091076;28;20532;-76
2023/02/26 08:11:32;;;;;;;1999.90;999.90;;;;;;;1.22;100.00;96956.78;5091777;28;20032;-73
2023/02/26 08:13:58;;;;;;;1999.90;999.90;;;;;;;1.25;100.00;96960.81;5091165;28;20115;-76
2023/02/26 08:16:23;;;;;;;1999.90;999.90;;;;;;;1.21;100.00;96951.63;5093117;28;20135;-75
2023/02/26 08:18:49;;;;;;;1999.90;999.90;;;;;;;1.18;100.00;96969.13;5090106;28;20028;-77
2023/02/26 08:21:14;;;;;;;1999.90;999.90;;;;;;;1.30;100.00;96988.59;5091855;28;20035;-78
2023/02/26 08:23:39;;;;;;;1999.90;999.90;;;;;;;1.42;100.00;96991.06;5091503;28;20020;-76
2023/02/26 08:26:07;;;;;;;1999.90;999.90;;;;;;;1.39;100.00;96987.03;5090802;28;20432;-76
2023/02/26 08:28:33;;;;;;;1999.90;999.90;;;;;;;1.38;100.00;96974.63;5091824;28;20073;-74
2023/02/26 08:30:59;;;;;;;1999.90;999.90;;;;;;;1.35;100.00;96975.13;5091684;28;20024;-75
2023/02/26 08:33:25;;;;;;;1999.90;999.90;;;;;;;1.34;100.00;96967.34;5091604;28;20028;-75
2023/02/26 08:35:52;;;;;;;1999.90;999.90;;;;;;;1.40;100.00;96980.56;5091336;28;20028;-75
2023/02/26 08:38:18;;;;;;;1999.90;999.90;;;;;;;1.36;100.00;96998.31;5089988;28;20069;-74
2023/02/26 08:40:43;;;;;;;1999.90;999.90;;;;;;;1.42;100.00;96996.47;5091963;28;20032;-76
2023/02/26 08:43:10;;;;;;;1999.90;999.90;;;;;;;1.33;100.00;96996.16;5092213;28;20024;-76
2023/02/26 08:45:36;;;;;;;1999.90;999.90;;;;;;;1.24;100.00;96994.19;5092020;28;20050;-76
2023/02/26 08:48:02;;;;;;;1999.90;999.90;;;;;;;1.37;100.00;96999.13;5091127;28;20480;-76
2023/02/26 08:50:27;;;;;;;1999.90;999.90;;;;;;;1.32;100.00;96996.38;5099492;28;20034;-77
2023/02/26 08:52:53;;;;;;;1999.90;999.90;;;;;;;1.36;100.00;96998.31;5103442;28;20634;-75
2023/02/26 08:55:18;;;;;;;1999.90;999.90;;;;;;;1.35;100.00;96996.69;5104054;28;20475;-75
2023/02/26 08:57:44;;;;;;;1999.90;999.90;;;;;;;1.40;100.00;96999.44;5095374;28;20025;-76
2023/02/26 09:00:10;;;;;;;1999.90;999.90;;;;;;;1.40;100.00;97009.38;5109111;28;20081;-77
2023/02/26 09:02:36;;;;;;;1999.90;999.90;;;;;;;1.49;100.00;97015.91;5097720;28;20015;-82
2023/02/26 09:05:02;;;;;;;1999.90;999.90;;;;;;;1.47;100.00;97028.84;5091740;28;20043;-75
2023/02/26 09:07:28;;;;;;;1999.90;999.90;;;;;;;1.58;100.00;97017.84;5091238;28;20051;-74
2023/02/26 09:09:53;;;;;;;1999.90;999.90;;;;;;;1.57;100.00;97026.19;5097159;28;20505;-74
2023/02/26 09:12:18;;;;;;;1999.90;999.90;;;;;;;1.48;100.00;97011.56;5097096;28;20024;-74
2023/02/26 09:14:44;;;;;;;1999.90;999.90;;;;;;;1.55;100.00;97012.16;5098254;28;20107;-75
2023/02/26 09:17:09;;;;;;;1999.90;999.90;;;;;;;1.67;100.00;97015.47;5100815;28;20016;-77
2023/02/26 09:19:35;;;;;;;1999.90;999.90;;;;;;;1.50;100.00;97012.94;5103063;28;20031;-77
2023/02/26 09:22:00;;;;;;;1999.90;999.90;;;;;;;1.58;100.00;97023.22;5092018;28;20036;-74
2023/02/26 09:24:26;;;;;;;1999.90;999.90;;;;;;;1.58;100.00;97030.50;5103420;28;20062;-75
2023/02/26 09:26:51;;;;;;;1999.90;999.90;;;;;;;1.69;100.00;97032.19;5103247;28;20107;-76
2023/02/26 09:29:16;;;;;;;1999.90;999.90;;;;;;;1.73;100.00;97032.47;5103151;28;20172;-74
2023/02/26 09:31:42;;;;;;;1999.90;999.90;;;;;;;1.73;100.00;97029.75;5097209;28;20084;-76
2023/02/26 09:34:07;;;;;;;1999.90;999.90;;;;;;;1.77;100.00;97029.00;5097374;28;20028;-76
2023/02/26 09:36:33;;;;;;;1999.90;999.90;;;;;;;1.86;100.00;97032.81;5093638;28;20032;-74
2023/02/26 09:38:59;;;;;;;1999.90;999.90;;;;;;;1.69;100.00;97045.66;5094327;28;20475;-76
2023/02/26 09:41:32;;;;;;;1999.90;999.90;;;;;;;1.79;100.00;97039.50;5089192;28;20028;-75
2023/02/26 09:44:18;;;;;;;1999.90;999.90;;;;;;;1.75;100.00;97047.31;5089578;28;20024;-74
2023/02/26 09:46:54;;;;;;;1999.90;999.90;;;;;;;1.72;100.00;97034.38;5089627;28;20046;-75
2023/02/26 09:49:58;;;;;;;1999.90;999.90;;;;;;;1.91;100.00;97053.59;5087948;28;20036;-75
2023/02/26 09:52:31;;;;;;;1999.90;999.90;;;;;;;1.80;100.00;97038.44;5089941;28;20406;-75
2023/02/26 09:55:28;;;;;;;1999.90;999.90;;;;;;;1.83;100.00;97046.81;5089417;28;20024;-75
2023/02/26 09:58:10;;;;;;;1999.90;999.90;;;;;;;1.92;100.00;97042.53;5088440;28;20035;-76
2023/02/26 10:00:57;;;;;;;1999.90;999.90;;;;;;;2.02;100.00;97044.47;5089608;28;20462;-75
2023/02/26 10:03:26;;;;;;;1999.90;999.90;;;;;;;1.93;100.00;97054.13;5090375;28;20040;-74
2023/02/26 10:06:27;;;;;;;1999.90;999.90;;;;;;;1.61;100.00;97057.75;5094826;28;20488;-74
2023/02/26 10:09:19;;;;;;;1999.90;999.90;;;;;;;1.81;100.00;97062.44;5081709;28;20567;-75
2023/02/26 10:12:09;;;;;;;1999.90;999.90;;;;;;;1.77;100.00;97065.91;5106403;28;20030;-77
2023/02/26 10:14:58;;;;;;;1999.90;999.90;;;;;;;1.87;100.00;97074.06;5082284;28;20036;-76
2023/02/26 10:17:32;;;;;;;1999.90;999.90;;;;;;;1.99;100.00;97067.38;5088865;28;20036;-76
2023/02/26 10:20:10;;;;;;;1999.90;999.90;;;;;;;2.01;100.00;97075.19;5082154;28;20016;-76
2023/02/26 10:22:44;;;;;;;1999.90;999.90;;;;;;;1.99;100.00;97072.78;5109478;28;20043;-77
2023/02/26 10:25:18;;;;;;;1999.90;999.90;;;;;;;1.74;100.00;97067.25;5095378;28;20023;-75
2023/02/26 10:28:28;;;;;;;1999.90;999.90;;;;;;;1.72;100.00;97055.94;5090240;28;20459;-75
2023/02/26 10:31:21;;;;;;;1999.90;999.90;;;;;;;1.73;100.00;97057.53;5084264;28;20066;-75
2023/02/26 10:34:04;;;;;;;1999.90;999.90;;;;;;;1.73;100.00;97060.22;5091166;28;20024;-75
2023/02/26 10:36:44;;;;;;;1999.90;999.90;;;;;;;1.89;100.00;97061.94;5083977;28;20044;-77
2023/02/26 10:39:28;;;;;;;1999.90;999.90;;;;;;;1.56;100.00;97030.78;5097937;28;20182;-73
2023/02/26 10:41:58;;;;;;;1999.90;999.90;;;;;;;1.75;100.00;97068.06;5085929;28;20093;-74
2023/02/26 10:44:36;;;;;;;1999.90;999.90;;;;;;;1.95;100.00;97068.97;5088410;28;20429;-74
2023/02/26 10:47:29;;;;;;;1999.90;999.90;;;;;;;2.07;100.00;97074.97;5098799;28;20059;-75
2023/02/26 10:50:03;;;;;;;1999.90;999.90;;;;;;;2.11;100.00;97078.75;5063116;28;20029;-78
2023/02/26 10:52:32;;;;;;;1999.90;999.90;;;;;;;2.14;100.00;97072.03;5104585;28;20065;-75
2023/02/26 10:55:11;;;;;;;1999.90;999.90;;;;;;;2.12;100.00;97083.09;5095307;28;20024;-75
2023/02/26 10:57:42;;;;;;;1999.90;999.90;;;;;;;1.94;100.00;97086.22;5095014;28;20720;-75
2023/02/26 11:00:18;;;;;;;1999.90;999.90;;;;;;;2.01;100.00;97073.31;5097037;28;20044;-76
2023/02/26 11:02:47;;;;;;;1999.90;999.90;;;;;;;2.00;100.00;97071.72;5105618;28;20028;-76
2023/02/26 11:05:17;;;;;;;1999.90;999.90;;;;;;;2.04;100.00;97080.88;5100351;28;20125;-74
2023/02/26 11:07:47;;;;;;;1999.90;999.90;;;;;;;2.03;100.00;97073.88;5098703;28;20047;-76
2023/02/26 11:10:19;;;;;;;1999.90;999.90;;;;;;;1.92;100.00;97082.97;5106386;28;20035;-75
2023/02/26 11:12:46;;;;;;;1999.90;999.90;;;;;;;1.86;100.00;97073.25;5080348;28;20106;-76